sensor_id;sensor_type;location;lat;lon;timestamp;P1;durP1;ratioP1;P2;durP2;ratioP2
29120;SDS011;16191;49.548;8.658;2023-11-18T00:00:55;10.80;;;6.50;;
29120;SDS011;16191;49.548;8.658;2023-11-18T00:03:22;13.88;;;6.93;;
29120;SDS011;16191;49.548;8.658;2023-11-18T00:05:49;10.32;;;6.90;;
29120;SDS011;16191;49.548;8.658;2023-11-18T00:08:15;9.00;;;6.93;;
29120;SDS011;16191;49.548;8.658;2023-11-18T00:10:42;12.27;;;7.80;;
29120;SDS011;16191;49.548;8.658;2023-11-18T00:13:09;11.27;;;7.03;;
29120;SDS011;16191;49.548;8.658;2023-11-18T00:15:36;10.90;;;6.82;;
29120;SDS011;16191;49.548;8.658;2023-11-18T00:18:02;10.32;;;6.57;;
29120;SDS011;16191;49.548;8.658;2023-11-18T00:20:29;14.00;;;7.25;;
29120;SDS011;16191;49.548;8.658;2023-11-18T00:22:57;9.68;;;7.18;;
29120;SDS011;16191;49.548;8.658;2023-11-18T00:25:24;13.85;;;8.10;;
29120;SDS011;16191;49.548;8.658;2023-11-18T00:27:50;14.98;;;6.85;;
29120;SDS011;16191;49.548;8.658;2023-11-18T00:30:17;13.32;;;7.53;;
29120;SDS011;16191;49.548;8.658;2023-11-18T00:32:44;16.73;;;7.57;;
29120;SDS011;16191;49.548;8.658;2023-11-18T00:35:11;11.35;;;7.25;;
29120;SDS011;16191;49.548;8.658;2023-11-18T00:37:37;10.52;;;7.28;;
29120;SDS011;16191;49.548;8.658;2023-11-18T00:40:04;12.93;;;7.82;;
29120;SDS011;16191;49.548;8.658;2023-11-18T00:42:32;13.25;;;7.40;;
29120;SDS011;16191;49.548;8.658;2023-11-18T00:44:59;15.10;;;7.75;;
29120;SDS011;16191;49.548;8.658;2023-11-18T00:47:26;15.07;;;8.35;;
29120;SDS011;16191;49.548;8.658;2023-11-18T00:49:52;12.32;;;8.40;;
29120;SDS011;16191;49.548;8.658;2023-11-18T00:52:20;11.80;;;7.53;;
29120;SDS011;16191;49.548;8.658;2023-11-18T00:54:47;11.40;;;8.10;;
29120;SDS011;16191;49.548;8.658;2023-11-18T00:57:13;15.95;;;8.45;;
29120;SDS011;16191;49.548;8.658;2023-11-18T00:59:43;16.63;;;8.55;;
29120;SDS011;16191;49.548;8.658;2023-11-18T01:02:10;16.27;;;9.60;;
29120;SDS011;16191;49.548;8.658;2023-11-18T01:04:37;10.90;;;8.57;;
29120;SDS011;16191;49.548;8.658;2023-11-18T01:07:05;10.82;;;8.05;;
29120;SDS011;16191;49.548;8.658;2023-11-18T01:09:31;11.95;;;8.43;;
29120;SDS011;16191;49.548;8.658;2023-11-18T01:12:03;11.90;;;8.20;;
29120;SDS011;16191;49.548;8.658;2023-11-18T01:14:34;18.25;;;9.10;;
29120;SDS011;16191;49.548;8.658;2023-11-18T01:17:05;17.80;;;9.38;;
29120;SDS011;16191;49.548;8.658;2023-11-18T01:19:32;15.45;;;9.63;;
29120;SDS011;16191;49.548;8.658;2023-11-18T01:22:00;12.75;;;9.18;;
29120;SDS011;16191;49.548;8.658;2023-11-18T01:24:27;17.60;;;10.07;;
29120;SDS011;16191;49.548;8.658;2023-11-18T01:26:54;22.75;;;10.52;;
29120;SDS011;16191;49.548;8.658;2023-11-18T01:29:21;13.07;;;9.45;;
29120;SDS011;16191;49.548;8.658;2023-11-18T01:31:48;16.55;;;10.10;;
29120;SDS011;16191;49.548;8.658;2023-11-18T01:34:19;15.18;;;9.10;;
29120;SDS011;16191;49.548;8.658;2023-11-18T01:36:48;14.50;;;9.63;;
29120;SDS011;16191;49.548;8.658;2023-11-18T01:39:18;16.10;;;9.85;;
29120;SDS011;16191;49.548;8.658;2023-11-18T01:41:45;19.42;;;9.95;;
29120;SDS011;16191;49.548;8.658;2023-11-18T01:44:12;14.93;;;9.82;;
29120;SDS011;16191;49.548;8.658;2023-11-18T01:46:41;16.97;;;9.50;;
29120;SDS011;16191;49.548;8.658;2023-11-18T01:49:12;14.65;;;9.70;;
29120;SDS011;16191;49.548;8.658;2023-11-18T01:51:41;18.58;;;10.05;;
29120;SDS011;16191;49.548;8.658;2023-11-18T01:54:10;16.58;;;9.35;;
29120;SDS011;16191;49.548;8.658;2023-11-18T01:56:43;19.33;;;10.07;;
29120;SDS011;16191;49.548;8.658;2023-11-18T01:59:14;21.23;;;10.35;;
29120;SDS011;16191;49.548;8.658;2023-11-18T02:01:48;16.95;;;10.05;;
29120;SDS011;16191;49.548;8.658;2023-11-18T02:04:17;16.00;;;9.77;;
29120;SDS011;16191;49.548;8.658;2023-11-18T02:06:47;13.77;;;10.35;;
29120;SDS011;16191;49.548;8.658;2023-11-18T02:09:16;21.02;;;11.25;;
29120;SDS011;16191;49.548;8.658;2023-11-18T02:11:50;19.67;;;10.57;;
29120;SDS011;16191;49.548;8.658;2023-11-18T02:14:23;15.35;;;10.07;;
29120;SDS011;16191;49.548;8.658;2023-11-18T02:16:53;18.15;;;10.70;;
29120;SDS011;16191;49.548;8.658;2023-11-18T02:19:25;15.52;;;9.95;;
29120;SDS011;16191;49.548;8.658;2023-11-18T02:21:53;17.70;;;10.35;;
29120;SDS011;16191;49.548;8.658;2023-11-18T02:24:30;19.58;;;11.35;;
29120;SDS011;16191;49.548;8.658;2023-11-18T02:27:03;18.13;;;11.68;;
29120;SDS011;16191;49.548;8.658;2023-11-18T02:29:37;18.10;;;12.05;;
29120;SDS011;16191;49.548;8.658;2023-11-18T02:32:17;20.90;;;12.15;;
29120;SDS011;16191;49.548;8.658;2023-11-18T02:34:58;20.48;;;11.98;;
29120;SDS011;16191;49.548;8.658;2023-11-18T02:37:37;28.15;;;13.15;;
29120;SDS011;16191;49.548;8.658;2023-11-18T02:40:08;20.90;;;11.77;;
29120;SDS011;16191;49.548;8.658;2023-11-18T02:42:41;19.45;;;12.93;;
29120;SDS011;16191;49.548;8.658;2023-11-18T02:45:10;21.60;;;12.23;;
29120;SDS011;16191;49.548;8.658;2023-11-18T02:47:41;22.08;;;12.57;;
29120;SDS011;16191;49.548;8.658;2023-11-18T02:50:08;21.60;;;13.40;;
29120;SDS011;16191;49.548;8.658;2023-11-18T02:52:37;17.77;;;13.00;;
29120;SDS011;16191;49.548;8.658;2023-11-18T02:55:05;25.95;;;13.93;;
29120;SDS011;16191;49.548;8.658;2023-11-18T03:00:02;26.98;;;15.15;;
29120;SDS011;16191;49.548;8.658;2023-11-18T03:02:37;24.17;;;14.85;;
29120;SDS011;16191;49.548;8.658;2023-11-18T03:05:09;25.15;;;15.07;;
29120;SDS011;16191;49.548;8.658;2023-11-18T03:07:41;22.27;;;14.50;;
29120;SDS011;16191;49.548;8.658;2023-11-18T03:12:38;25.02;;;14.77;;
29120;SDS011;16191;49.548;8.658;2023-11-18T03:15:05;21.20;;;14.02;;
29120;SDS011;16191;49.548;8.658;2023-11-18T03:17:35;21.25;;;14.15;;
29120;SDS011;16191;49.548;8.658;2023-11-18T03:20:02;22.58;;;14.57;;
29120;SDS011;16191;49.548;8.658;2023-11-18T03:22:29;30.80;;;15.05;;
29120;SDS011;16191;49.548;8.658;2023-11-18T03:24:55;20.08;;;14.00;;
29120;SDS011;16191;49.548;8.658;2023-11-18T03:27:22;22.35;;;14.40;;
29120;SDS011;16191;49.548;8.658;2023-11-18T03:29:49;24.00;;;14.90;;
29120;SDS011;16191;49.548;8.658;2023-11-18T03:32:20;21.08;;;13.88;;
29120;SDS011;16191;49.548;8.658;2023-11-18T03:34:46;23.67;;;14.55;;
29120;SDS011;16191;49.548;8.658;2023-11-18T03:37:13;21.90;;;14.52;;
29120;SDS011;16191;49.548;8.658;2023-11-18T03:39:39;22.45;;;14.25;;
29120;SDS011;16191;49.548;8.658;2023-11-18T03:42:06;22.60;;;13.52;;
29120;SDS011;16191;49.548;8.658;2023-11-18T03:44:33;20.25;;;13.18;;
29120;SDS011;16191;49.548;8.658;2023-11-18T03:47:00;21.20;;;13.60;;
29120;SDS011;16191;49.548;8.658;2023-11-18T03:49:29;19.83;;;13.18;;
29120;SDS011;16191;49.548;8.658;2023-11-18T03:51:56;19.58;;;12.48;;
29120;SDS011;16191;49.548;8.658;2023-11-18T03:54:22;21.08;;;13.40;;
29120;SDS011;16191;49.548;8.658;2023-11-18T03:56:49;24.05;;;13.63;;
29120;SDS011;16191;49.548;8.658;2023-11-18T03:59:15;24.30;;;13.65;;
29120;SDS011;16191;49.548;8.658;2023-11-18T04:01:42;23.85;;;15.23;;
29120;SDS011;16191;49.548;8.658;2023-11-18T04:04:08;22.40;;;15.77;;
29120;SDS011;16191;49.548;8.658;2023-11-18T04:06:35;25.13;;;15.60;;
29120;SDS011;16191;49.548;8.658;2023-11-18T04:09:02;22.25;;;15.18;;
29120;SDS011;16191;49.548;8.658;2023-11-18T04:11:29;24.70;;;15.52;;
29120;SDS011;16191;49.548;8.658;2023-11-18T04:13:56;23.90;;;15.18;;
29120;SDS011;16191;49.548;8.658;2023-11-18T04:16:22;23.58;;;15.00;;
29120;SDS011;16191;49.548;8.658;2023-11-18T04:18:49;26.08;;;16.10;;
29120;SDS011;16191;49.548;8.658;2023-11-18T04:21:16;26.13;;;16.63;;
29120;SDS011;16191;49.548;8.658;2023-11-18T04:23:42;22.65;;;15.63;;
29120;SDS011;16191;49.548;8.658;2023-11-18T04:26:10;23.77;;;16.05;;
29120;SDS011;16191;49.548;8.658;2023-11-18T04:28:37;25.35;;;16.85;;
29120;SDS011;16191;49.548;8.658;2023-11-18T04:31:04;26.60;;;16.65;;
29120;SDS011;16191;49.548;8.658;2023-11-18T04:33:32;26.23;;;15.50;;
29120;SDS011;16191;49.548;8.658;2023-11-18T04:35:59;24.15;;;15.63;;
29120;SDS011;16191;49.548;8.658;2023-11-18T04:38:26;23.58;;;15.45;;
29120;SDS011;16191;49.548;8.658;2023-11-18T04:40:53;25.85;;;15.80;;
29120;SDS011;16191;49.548;8.658;2023-11-18T04:43:21;24.45;;;15.43;;
29120;SDS011;16191;49.548;8.658;2023-11-18T04:46:07;26.05;;;15.82;;
29120;SDS011;16191;49.548;8.658;2023-11-18T04:48:34;23.23;;;15.10;;
29120;SDS011;16191;49.548;8.658;2023-11-18T04:51:06;25.35;;;16.23;;
29120;SDS011;16191;49.548;8.658;2023-11-18T04:53:33;22.48;;;14.68;;
29120;SDS011;16191;49.548;8.658;2023-11-18T04:56:00;28.48;;;16.58;;
29120;SDS011;16191;49.548;8.658;2023-11-18T04:58:27;32.65;;;16.65;;
29120;SDS011;16191;49.548;8.658;2023-11-18T05:00:54;23.30;;;15.20;;
29120;SDS011;16191;49.548;8.658;2023-11-18T05:03:21;23.77;;;15.55;;
29120;SDS011;16191;49.548;8.658;2023-11-18T05:05:48;25.52;;;16.20;;
29120;SDS011;16191;49.548;8.658;2023-11-18T05:08:18;26.88;;;17.08;;
29120;SDS011;16191;49.548;8.658;2023-11-18T05:10:47;25.40;;;15.88;;
29120;SDS011;16191;49.548;8.658;2023-11-18T05:13:15;26.90;;;14.98;;
29120;SDS011;16191;49.548;8.658;2023-11-18T05:15:46;26.40;;;14.60;;
29120;SDS011;16191;49.548;8.658;2023-11-18T05:18:13;24.75;;;14.73;;
29120;SDS011;16191;49.548;8.658;2023-11-18T05:20:42;23.52;;;14.65;;
29120;SDS011;16191;49.548;8.658;2023-11-18T05:23:09;25.83;;;14.30;;
29120;SDS011;16191;49.548;8.658;2023-11-18T05:25:37;26.67;;;15.40;;
29120;SDS011;16191;49.548;8.658;2023-11-18T05:28:06;22.42;;;14.13;;
29120;SDS011;16191;49.548;8.658;2023-11-18T05:30:35;20.87;;;14.23;;
29120;SDS011;16191;49.548;8.658;2023-11-18T05:33:02;24.65;;;14.65;;
29120;SDS011;16191;49.548;8.658;2023-11-18T05:35:33;20.30;;;14.65;;
29120;SDS011;16191;49.548;8.658;2023-11-18T05:37:59;28.42;;;15.27;;
29120;SDS011;16191;49.548;8.658;2023-11-18T05:40:26;21.05;;;13.98;;
29120;SDS011;16191;49.548;8.658;2023-11-18T05:42:55;25.42;;;14.05;;
29120;SDS011;16191;49.548;8.658;2023-11-18T05:45:24;24.65;;;14.30;;
29120;SDS011;16191;49.548;8.658;2023-11-18T05:48:10;24.77;;;14.30;;
29120;SDS011;16191;49.548;8.658;2023-11-18T05:50:37;22.65;;;13.93;;
29120;SDS011;16191;49.548;8.658;2023-11-18T05:53:04;22.10;;;14.55;;
29120;SDS011;16191;49.548;8.658;2023-11-18T05:55:30;22.27;;;13.45;;
29120;SDS011;16191;49.548;8.658;2023-11-18T05:57:57;21.05;;;13.50;;
29120;SDS011;16191;49.548;8.658;2023-11-18T06:00:24;21.08;;;14.15;;
29120;SDS011;16191;49.548;8.658;2023-11-18T06:03:01;23.63;;;13.30;;
29120;SDS011;16191;49.548;8.658;2023-11-18T06:05:28;22.00;;;13.60;;
29120;SDS011;16191;49.548;8.658;2023-11-18T06:07:55;19.20;;;13.27;;
29120;SDS011;16191;49.548;8.658;2023-11-18T06:10:22;18.55;;;12.18;;
29120;SDS011;16191;49.548;8.658;2023-11-18T06:12:49;21.17;;;13.82;;
29120;SDS011;16191;49.548;8.658;2023-11-18T06:15:16;20.80;;;13.57;;
29120;SDS011;16191;49.548;8.658;2023-11-18T06:17:45;23.58;;;14.20;;
29120;SDS011;16191;49.548;8.658;2023-11-18T06:20:12;24.05;;;13.70;;
29120;SDS011;16191;49.548;8.658;2023-11-18T06:22:40;24.35;;;14.60;;
29120;SDS011;16191;49.548;8.658;2023-11-18T06:25:07;21.40;;;14.02;;
29120;SDS011;16191;49.548;8.658;2023-11-18T06:27:34;20.52;;;12.88;;
29120;SDS011;16191;49.548;8.658;2023-11-18T06:30:01;19.92;;;13.48;;
29120;SDS011;16191;49.548;8.658;2023-11-18T06:32:27;22.77;;;13.57;;
29120;SDS011;16191;49.548;8.658;2023-11-18T06:34:54;20.40;;;13.43;;
29120;SDS011;16191;49.548;8.658;2023-11-18T06:37:21;22.58;;;13.85;;
29120;SDS011;16191;49.548;8.658;2023-11-18T06:39:48;22.27;;;14.38;;
29120;SDS011;16191;49.548;8.658;2023-11-18T06:42:15;25.42;;;14.38;;
29120;SDS011;16191;49.548;8.658;2023-11-18T06:44:41;25.15;;;13.65;;
29120;SDS011;16191;49.548;8.658;2023-11-18T06:47:08;22.52;;;14.18;;
29120;SDS011;16191;49.548;8.658;2023-11-18T06:49:37;22.48;;;13.90;;
29120;SDS011;16191;49.548;8.658;2023-11-18T06:52:04;21.10;;;13.55;;
29120;SDS011;16191;49.548;8.658;2023-11-18T06:54:31;21.77;;;14.18;;
29120;SDS011;16191;49.548;8.658;2023-11-18T06:56:59;23.98;;;14.15;;
29120;SDS011;16191;49.548;8.658;2023-11-18T06:59:26;21.30;;;14.35;;
29120;SDS011;16191;49.548;8.658;2023-11-18T07:01:53;23.98;;;14.60;;
29120;SDS011;16191;49.548;8.658;2023-11-18T07:04:20;19.08;;;13.70;;
29120;SDS011;16191;49.548;8.658;2023-11-18T07:06:46;17.77;;;12.57;;
29120;SDS011;16191;49.548;8.658;2023-11-18T07:09:13;24.33;;;13.52;;
29120;SDS011;16191;49.548;8.658;2023-11-18T07:11:44;26.38;;;14.65;;
29120;SDS011;16191;49.548;8.658;2023-11-18T07:14:13;28.13;;;17.38;;
29120;SDS011;16191;49.548;8.658;2023-11-18T07:16:41;26.42;;;17.63;;
29120;SDS011;16191;49.548;8.658;2023-11-18T07:19:08;32.00;;;19.40;;
29120;SDS011;16191;49.548;8.658;2023-11-18T07:21:36;32.72;;;22.45;;
29120;SDS011;16191;49.548;8.658;2023-11-18T07:24:03;36.90;;;24.27;;
29120;SDS011;16191;49.548;8.658;2023-11-18T07:26:30;35.97;;;25.00;;
29120;SDS011;16191;49.548;8.658;2023-11-18T07:28:57;37.05;;;23.48;;
29120;SDS011;16191;49.548;8.658;2023-11-18T07:31:23;35.05;;;23.65;;
29120;SDS011;16191;49.548;8.658;2023-11-18T07:33:51;38.28;;;24.35;;
29120;SDS011;16191;49.548;8.658;2023-11-18T07:36:18;44.00;;;26.08;;
29120;SDS011;16191;49.548;8.658;2023-11-18T07:38:49;41.15;;;24.98;;
29120;SDS011;16191;49.548;8.658;2023-11-18T07:41:16;41.65;;;24.30;;
29120;SDS011;16191;49.548;8.658;2023-11-18T07:43:58;37.83;;;25.20;;
29120;SDS011;16191;49.548;8.658;2023-11-18T07:46:24;45.45;;;27.92;;
29120;SDS011;16191;49.548;8.658;2023-11-18T07:48:52;39.67;;;24.40;;
29120;SDS011;16191;49.548;8.658;2023-11-18T07:51:19;39.58;;;24.27;;
29120;SDS011;16191;49.548;8.658;2023-11-18T07:53:49;39.28;;;24.23;;
29120;SDS011;16191;49.548;8.658;2023-11-18T07:56:16;34.85;;;22.45;;
29120;SDS011;16191;49.548;8.658;2023-11-18T07:58:43;37.88;;;22.70;;
29120;SDS011;16191;49.548;8.658;2023-11-18T08:01:14;30.75;;;21.13;;
29120;SDS011;16191;49.548;8.658;2023-11-18T08:03:42;33.47;;;20.90;;
29120;SDS011;16191;49.548;8.658;2023-11-18T08:06:10;30.83;;;19.65;;
29120;SDS011;16191;49.548;8.658;2023-11-18T08:08:38;33.20;;;19.60;;
29120;SDS011;16191;49.548;8.658;2023-11-18T08:11:05;26.15;;;15.90;;
29120;SDS011;16191;49.548;8.658;2023-11-18T08:13:32;28.42;;;17.15;;
29120;SDS011;16191;49.548;8.658;2023-11-18T08:15:59;21.67;;;13.40;;
29120;SDS011;16191;49.548;8.658;2023-11-18T08:18:26;22.30;;;13.80;;
29120;SDS011;16191;49.548;8.658;2023-11-18T08:20:54;22.17;;;14.60;;
29120;SDS011;16191;49.548;8.658;2023-11-18T08:23:21;20.75;;;12.40;;
29120;SDS011;16191;49.548;8.658;2023-11-18T08:25:47;21.58;;;12.43;;
29120;SDS011;16191;49.548;8.658;2023-11-18T08:28:15;24.75;;;13.75;;
29120;SDS011;16191;49.548;8.658;2023-11-18T08:30:42;21.63;;;12.95;;
29120;SDS011;16191;49.548;8.658;2023-11-18T08:33:09;19.05;;;11.73;;
29120;SDS011;16191;49.548;8.658;2023-11-18T08:35:36;23.67;;;11.18;;
29120;SDS011;16191;49.548;8.658;2023-11-18T08:38:03;20.38;;;11.75;;
29120;SDS011;16191;49.548;8.658;2023-11-18T08:40:30;18.70;;;10.25;;
29120;SDS011;16191;49.548;8.658;2023-11-18T08:42:57;20.85;;;10.18;;
29120;SDS011;16191;49.548;8.658;2023-11-18T08:45:25;15.90;;;10.38;;
29120;SDS011;16191;49.548;8.658;2023-11-18T08:47:56;15.10;;;9.30;;
29120;SDS011;16191;49.548;8.658;2023-11-18T08:50:24;13.75;;;9.73;;
29120;SDS011;16191;49.548;8.658;2023-11-18T08:52:52;17.83;;;10.77;;
29120;SDS011;16191;49.548;8.658;2023-11-18T08:55:28;21.40;;;10.48;;
29120;SDS011;16191;49.548;8.658;2023-11-18T08:58:10;18.13;;;11.98;;
29120;SDS011;16191;49.548;8.658;2023-11-18T09:01:10;19.85;;;12.25;;
29120;SDS011;16191;49.548;8.658;2023-11-18T09:03:41;21.10;;;11.93;;
29120;SDS011;16191;49.548;8.658;2023-11-18T09:06:19;19.38;;;12.18;;
29120;SDS011;16191;49.548;8.658;2023-11-18T09:08:52;20.77;;;10.95;;
29120;SDS011;16191;49.548;8.658;2023-11-18T09:11:21;16.92;;;8.60;;
29120;SDS011;16191;49.548;8.658;2023-11-18T09:13:49;17.77;;;8.10;;
29120;SDS011;16191;49.548;8.658;2023-11-18T09:16:21;10.70;;;6.50;;
29120;SDS011;16191;49.548;8.658;2023-11-18T09:18:49;12.98;;;6.97;;
29120;SDS011;16191;49.548;8.658;2023-11-18T09:21:17;11.95;;;7.05;;
29120;SDS011;16191;49.548;8.658;2023-11-18T09:23:51;12.05;;;7.32;;
29120;SDS011;16191;49.548;8.658;2023-11-18T09:26:18;12.75;;;7.90;;
29120;SDS011;16191;49.548;8.658;2023-11-18T09:28:45;12.68;;;7.78;;
29120;SDS011;16191;49.548;8.658;2023-11-18T09:31:12;13.52;;;8.25;;
29120;SDS011;16191;49.548;8.658;2023-11-18T09:33:39;13.27;;;8.23;;
29120;SDS011;16191;49.548;8.658;2023-11-18T09:36:11;13.73;;;7.85;;
29120;SDS011;16191;49.548;8.658;2023-11-18T09:38:39;15.60;;;8.98;;
29120;SDS011;16191;49.548;8.658;2023-11-18T09:41:07;16.00;;;7.65;;
29120;SDS011;16191;49.548;8.658;2023-11-18T09:43:37;14.52;;;7.57;;
29120;SDS011;16191;49.548;8.658;2023-11-18T09:46:10;12.32;;;7.05;;
29120;SDS011;16191;49.548;8.658;2023-11-18T09:51:19;15.05;;;9.43;;
29120;SDS011;16191;49.548;8.658;2023-11-18T09:53:51;11.45;;;7.25;;
29120;SDS011;16191;49.548;8.658;2023-11-18T09:59:13;15.93;;;7.35;;
29120;SDS011;16191;49.548;8.658;2023-11-18T10:01:51;16.70;;;7.13;;
29120;SDS011;16191;49.548;8.658;2023-11-18T10:04:23;15.00;;;7.65;;
29120;SDS011;16191;49.548;8.658;2023-11-18T10:06:54;14.95;;;8.00;;
29120;SDS011;16191;49.548;8.658;2023-11-18T10:09:23;15.13;;;8.93;;
29120;SDS011;16191;49.548;8.658;2023-11-18T10:12:09;14.48;;;7.60;;
29120;SDS011;16191;49.548;8.658;2023-11-18T10:14:40;15.00;;;7.45;;
29120;SDS011;16191;49.548;8.658;2023-11-18T10:17:10;10.35;;;7.13;;
29120;SDS011;16191;49.548;8.658;2023-11-18T10:22:24;14.45;;;6.88;;
29120;SDS011;16191;49.548;8.658;2023-11-18T10:24:55;12.43;;;7.38;;
29120;SDS011;16191;49.548;8.658;2023-11-18T10:27:23;10.88;;;7.25;;
29120;SDS011;16191;49.548;8.658;2023-11-18T10:29:57;10.77;;;6.93;;
29120;SDS011;16191;49.548;8.658;2023-11-18T10:32:29;11.35;;;6.72;;
29120;SDS011;16191;49.548;8.658;2023-11-18T10:34:56;18.23;;;7.50;;
29120;SDS011;16191;49.548;8.658;2023-11-18T10:37:27;11.35;;;6.38;;
29120;SDS011;16191;49.548;8.658;2023-11-18T10:40:03;10.00;;;6.28;;
29120;SDS011;16191;49.548;8.658;2023-11-18T10:42:30;9.55;;;7.07;;
29120;SDS011;16191;49.548;8.658;2023-11-18T10:44:59;10.77;;;6.65;;
29120;SDS011;16191;49.548;8.658;2023-11-18T10:47:34;11.95;;;6.07;;
29120;SDS011;16191;49.548;8.658;2023-11-18T10:50:05;9.65;;;5.85;;
29120;SDS011;16191;49.548;8.658;2023-11-18T10:52:36;13.43;;;5.45;;
29120;SDS011;16191;49.548;8.658;2023-11-18T10:55:07;8.43;;;5.60;;
29120;SDS011;16191;49.548;8.658;2023-11-18T10:57:39;11.18;;;6.15;;
29120;SDS011;16191;49.548;8.658;2023-11-18T11:00:08;15.98;;;5.32;;
29120;SDS011;16191;49.548;8.658;2023-11-18T11:02:42;7.22;;;3.85;;
29120;SDS011;16191;49.548;8.658;2023-11-18T11:05:09;6.90;;;4.45;;
29120;SDS011;16191;49.548;8.658;2023-11-18T11:07:48;7.53;;;4.10;;
29120;SDS011;16191;49.548;8.658;2023-11-18T11:10:16;8.18;;;4.10;;
29120;SDS011;16191;49.548;8.658;2023-11-18T11:12:43;15.10;;;3.90;;
29120;SDS011;16191;49.548;8.658;2023-11-18T11:15:22;5.80;;;3.50;;
29120;SDS011;16191;49.548;8.658;2023-11-18T11:17:55;8.23;;;4.13;;
29120;SDS011;16191;49.548;8.658;2023-11-18T11:20:37;8.45;;;3.40;;
29120;SDS011;16191;49.548;8.658;2023-11-18T11:23:21;6.75;;;3.70;;
29120;SDS011;16191;49.548;8.658;2023-11-18T11:26:01;9.32;;;3.40;;
29120;SDS011;16191;49.548;8.658;2023-11-18T11:28:49;10.20;;;3.90;;
29120;SDS011;16191;49.548;8.658;2023-11-18T11:31:26;7.35;;;3.40;;
29120;SDS011;16191;49.548;8.658;2023-11-18T11:34:04;7.10;;;3.17;;
29120;SDS011;16191;49.548;8.658;2023-11-18T11:36:37;11.85;;;3.13;;
29120;SDS011;16191;49.548;8.658;2023-11-18T11:39:08;8.23;;;3.70;;
29120;SDS011;16191;49.548;8.658;2023-11-18T11:41:45;6.88;;;3.20;;
29120;SDS011;16191;49.548;8.658;2023-11-18T11:44:13;5.50;;;3.03;;
29120;SDS011;16191;49.548;8.658;2023-11-18T11:46:40;5.72;;;3.30;;
29120;SDS011;16191;49.548;8.658;2023-11-18T11:49:08;6.32;;;3.03;;
29120;SDS011;16191;49.548;8.658;2023-11-18T11:52:00;9.57;;;3.10;;
29120;SDS011;16191;49.548;8.658;2023-11-18T11:54:40;11.10;;;3.45;;
29120;SDS011;16191;49.548;8.658;2023-11-18T11:57:11;6.70;;;2.70;;
29120;SDS011;16191;49.548;8.658;2023-11-18T12:02:12;4.75;;;2.83;;
29120;SDS011;16191;49.548;8.658;2023-11-18T12:04:46;8.88;;;2.70;;
29120;SDS011;16191;49.548;8.658;2023-11-18T12:07:19;8.85;;;2.35;;
29120;SDS011;16191;49.548;8.658;2023-11-18T12:09:47;10.15;;;3.13;;
29120;SDS011;16191;49.548;8.658;2023-11-18T12:12:17;4.75;;;2.30;;
29120;SDS011;16191;49.548;8.658;2023-11-18T12:15:04;8.20;;;2.60;;
29120;SDS011;16191;49.548;8.658;2023-11-18T12:23:14;9.57;;;2.30;;
29120;SDS011;16191;49.548;8.658;2023-11-18T12:25:42;5.85;;;2.45;;
29120;SDS011;16191;49.548;8.658;2023-11-18T12:28:10;12.88;;;2.88;;
29120;SDS011;16191;49.548;8.658;2023-11-18T12:30:43;6.13;;;2.40;;
29120;SDS011;16191;49.548;8.658;2023-11-18T12:33:24;6.70;;;2.10;;
29120;SDS011;16191;49.548;8.658;2023-11-18T12:38:54;7.47;;;2.25;;
29120;SDS011;16191;49.548;8.658;2023-11-18T12:41:41;6.75;;;2.10;;
29120;SDS011;16191;49.548;8.658;2023-11-18T12:44:15;5.20;;;1.83;;
29120;SDS011;16191;49.548;8.658;2023-11-18T12:46:51;6.35;;;1.98;;
29120;SDS011;16191;49.548;8.658;2023-11-18T12:49:20;5.35;;;1.98;;
29120;SDS011;16191;49.548;8.658;2023-11-18T12:51:52;7.70;;;2.33;;
29120;SDS011;16191;49.548;8.658;2023-11-18T12:54:25;9.70;;;2.37;;
29120;SDS011;16191;49.548;8.658;2023-11-18T12:56:55;5.70;;;2.10;;
29120;SDS011;16191;49.548;8.658;2023-11-18T12:59:22;6.18;;;1.80;;
29120;SDS011;16191;49.548;8.658;2023-11-18T13:01:50;6.57;;;2.25;;
29120;SDS011;16191;49.548;8.658;2023-11-18T13:04:30;7.38;;;2.45;;
29120;SDS011;16191;49.548;8.658;2023-11-18T13:06:57;5.53;;;2.03;;
29120;SDS011;16191;49.548;8.658;2023-11-18T13:09:26;3.65;;;1.67;;
29120;SDS011;16191;49.548;8.658;2023-11-18T13:12:02;4.22;;;1.98;;
29120;SDS011;16191;49.548;8.658;2023-11-18T13:14:35;3.78;;;1.95;;
29120;SDS011;16191;49.548;8.658;2023-11-18T13:17:03;6.70;;;2.45;;
29120;SDS011;16191;49.548;8.658;2023-11-18T13:19:35;5.32;;;2.08;;
29120;SDS011;16191;49.548;8.658;2023-11-18T13:22:02;4.32;;;1.90;;
29120;SDS011;16191;49.548;8.658;2023-11-18T13:24:30;4.13;;;1.50;;
29120;SDS011;16191;49.548;8.658;2023-11-18T13:26:58;7.55;;;1.80;;
29120;SDS011;16191;49.548;8.658;2023-11-18T13:29:30;10.57;;;1.83;;
29120;SDS011;16191;49.548;8.658;2023-11-18T13:31:58;5.25;;;1.70;;
29120;SDS011;16191;49.548;8.658;2023-11-18T13:34:26;5.38;;;1.55;;
29120;SDS011;16191;49.548;8.658;2023-11-18T13:36:54;8.63;;;2.10;;
29120;SDS011;16191;49.548;8.658;2023-11-18T13:39:21;5.10;;;1.60;;
29120;SDS011;16191;49.548;8.658;2023-11-18T13:41:49;8.18;;;1.95;;
29120;SDS011;16191;49.548;8.658;2023-11-18T13:44:35;4.75;;;1.83;;
29120;SDS011;16191;49.548;8.658;2023-11-18T13:47:05;9.52;;;2.40;;
29120;SDS011;16191;49.548;8.658;2023-11-18T13:49:32;5.45;;;2.20;;
29120;SDS011;16191;49.548;8.658;2023-11-18T13:52:00;2.63;;;1.95;;
29120;SDS011;16191;49.548;8.658;2023-11-18T13:54:28;6.10;;;1.65;;
29120;SDS011;16191;49.548;8.658;2023-11-18T13:56:58;5.13;;;1.60;;
29120;SDS011;16191;49.548;8.658;2023-11-18T13:59:25;6.47;;;1.90;;
29120;SDS011;16191;49.548;8.658;2023-11-18T14:01:53;2.97;;;1.60;;
29120;SDS011;16191;49.548;8.658;2023-11-18T14:04:30;6.68;;;1.67;;
29120;SDS011;16191;49.548;8.658;2023-11-18T14:07:00;6.80;;;1.70;;
29120;SDS011;16191;49.548;8.658;2023-11-18T14:09:30;4.65;;;1.52;;
29120;SDS011;16191;49.548;8.658;2023-11-18T14:12:02;4.00;;;1.50;;
29120;SDS011;16191;49.548;8.658;2023-11-18T14:14:31;4.88;;;1.77;;
29120;SDS011;16191;49.548;8.658;2023-11-18T14:16:58;6.90;;;1.45;;
29120;SDS011;16191;49.548;8.658;2023-11-18T14:19:25;4.38;;;1.67;;
29120;SDS011;16191;49.548;8.658;2023-11-18T14:21:52;4.78;;;1.50;;
29120;SDS011;16191;49.548;8.658;2023-11-18T14:24:19;5.00;;;1.25;;
29120;SDS011;16191;49.548;8.658;2023-11-18T14:26:46;7.20;;;1.92;;
29120;SDS011;16191;49.548;8.658;2023-11-18T14:29:12;7.22;;;1.90;;
29120;SDS011;16191;49.548;8.658;2023-11-18T14:31:39;5.05;;;1.70;;
29120;SDS011;16191;49.548;8.658;2023-11-18T14:34:06;9.38;;;1.77;;
29120;SDS011;16191;49.548;8.658;2023-11-18T14:36:36;4.80;;;1.60;;
29120;SDS011;16191;49.548;8.658;2023-11-18T14:39:04;4.03;;;1.52;;
29120;SDS011;16191;49.548;8.658;2023-11-18T14:41:31;2.75;;;1.30;;
29120;SDS011;16191;49.548;8.658;2023-11-18T14:43:57;6.20;;;1.88;;
29120;SDS011;16191;49.548;8.658;2023-11-18T14:46:24;2.45;;;1.50;;
29120;SDS011;16191;49.548;8.658;2023-11-18T14:48:51;6.22;;;1.60;;
29120;SDS011;16191;49.548;8.658;2023-11-18T14:51:18;4.55;;;1.70;;
29120;SDS011;16191;49.548;8.658;2023-11-18T14:53:44;7.10;;;2.03;;
29120;SDS011;16191;49.548;8.658;2023-11-18T14:56:11;4.07;;;2.20;;
29120;SDS011;16191;49.548;8.658;2023-11-18T14:58:37;7.65;;;2.17;;
29120;SDS011;16191;49.548;8.658;2023-11-18T15:01:04;4.85;;;2.03;;
29120;SDS011;16191;49.548;8.658;2023-11-18T15:03:33;11.13;;;2.30;;
29120;SDS011;16191;49.548;8.658;2023-11-18T15:06:01;4.68;;;2.75;;
29120;SDS011;16191;49.548;8.658;2023-11-18T15:08:28;8.80;;;2.20;;